createdAt,value
2022-11-24T00:01:15.588Z,34.03
2022-11-24T00:03:44.673Z,33.93
2022-11-24T00:06:13.359Z,33.27
2022-11-24T00:08:42.061Z,31.67
2022-11-24T00:11:11.425Z,33.33
2022-11-24T00:13:41.091Z,32.67
2022-11-24T00:16:15.219Z,33.53
2022-11-24T00:18:44.498Z,31.83
2022-11-24T00:21:11.424Z,33.27
2022-11-24T00:23:38.649Z,34.00
2022-11-24T00:26:12.526Z,32.50
2022-11-24T00:28:40.389Z,33.67
2022-11-24T00:31:17.970Z,32.10
2022-11-24T00:33:46.237Z,32.83
2022-11-24T00:36:13.331Z,34.20
2022-11-24T00:38:40.167Z,33.20
2022-11-24T00:41:07.098Z,31.63
2022-11-24T00:43:34.251Z,34.30
2022-11-24T00:46:01.036Z,32.93
2022-11-24T00:48:27.811Z,32.53
2022-11-24T00:51:03.037Z,34.73
2022-11-24T00:53:30.159Z,34.90
2022-11-24T00:55:57.010Z,32.97
2022-11-24T00:58:24.432Z,34.30
2022-11-24T01:00:51.958Z,34.10
2022-11-24T01:03:20.574Z,33.67
2022-11-24T01:05:47.111Z,34.20
2022-11-24T01:08:13.752Z,34.80
2022-11-24T01:10:40.376Z,33.80
2022-11-24T01:13:06.933Z,35.43
2022-11-24T01:15:35.952Z,34.93
2022-11-24T01:18:03.324Z,33.70
2022-11-24T01:20:30.219Z,33.10
2022-11-24T01:22:56.746Z,33.57
2022-11-24T01:25:23.297Z,32.83
2022-11-24T01:27:49.872Z,35.53
2022-11-24T01:30:16.681Z,36.03
2022-11-24T01:32:43.255Z,34.70
2022-11-24T01:35:10.055Z,34.30
2022-11-24T01:37:36.605Z,34.10
2022-11-24T01:40:03.412Z,34.37
2022-11-24T01:42:47.676Z,33.53
2022-11-24T01:45:32.693Z,34.07
2022-11-24T01:48:01.366Z,32.70
2022-11-24T01:50:28.162Z,33.97
2022-11-24T01:52:56.490Z,33.67
2022-11-24T01:55:29.338Z,34.47
2022-11-24T01:58:03.730Z,32.23
2022-11-24T02:00:30.330Z,33.47
2022-11-24T02:02:58.424Z,34.00
2022-11-24T02:05:43.715Z,33.33
2022-11-24T02:08:30.551Z,34.53
2022-11-24T02:10:57.525Z,32.73
2022-11-24T02:13:25.111Z,32.23
2022-11-24T02:15:53.074Z,32.47
2022-11-24T02:18:19.660Z,30.93
2022-11-24T02:20:46.227Z,31.50
2022-11-24T02:23:28.735Z,32.27
2022-11-24T02:26:34.077Z,30.17
2022-11-24T02:29:00.658Z,31.20
2022-11-24T02:31:27.603Z,31.57
2022-11-24T02:33:54.788Z,32.23
2022-11-24T02:36:21.456Z,30.50
2022-11-24T02:38:47.997Z,30.07
2022-11-24T02:41:19.890Z,30.97
2022-11-24T02:43:51.299Z,30.10
2022-11-24T02:46:17.882Z,29.10
2022-11-24T02:48:44.498Z,31.60
2022-11-24T02:51:11.060Z,32.77
2022-11-24T02:53:37.628Z,30.67
2022-11-24T02:56:04.431Z,30.73
2022-11-24T02:58:31.028Z,30.00
2022-11-24T03:00:57.966Z,30.17
2022-11-24T03:03:25.661Z,29.90
2022-11-24T03:05:52.242Z,29.97
2022-11-24T03:08:19.269Z,29.80
2022-11-24T03:10:45.938Z,28.53
2022-11-24T03:13:12.509Z,27.87
2022-11-24T03:15:39.261Z,28.83
2022-11-24T03:18:06.026Z,29.80
2022-11-24T03:20:32.886Z,28.17
2022-11-24T03:22:59.435Z,28.40
2022-11-24T03:25:26.020Z,29.23
2022-11-24T03:27:52.773Z,29.80
2022-11-24T03:30:19.393Z,28.77
2022-11-24T03:32:46.008Z,30.20
2022-11-24T03:35:12.560Z,29.20
2022-11-24T03:37:39.107Z,27.77
2022-11-24T03:40:06.213Z,29.33
2022-11-24T03:42:32.814Z,28.33
2022-11-24T03:45:04.197Z,29.17
2022-11-24T03:47:43.474Z,29.27
2022-11-24T03:50:10.015Z,29.10
2022-11-24T03:52:36.574Z,30.53
2022-11-24T03:55:03.145Z,29.90
2022-11-24T03:57:29.726Z,28.53
2022-11-24T03:59:56.278Z,27.93
2022-11-24T04:02:22.857Z,28.07
2022-11-24T04:04:52.038Z,27.57
2022-11-24T04:07:18.795Z,27.53
2022-11-24T04:09:45.604Z,26.60
2022-11-24T04:12:30.760Z,25.63
2022-11-24T04:14:57.296Z,26.77
2022-11-24T04:17:23.892Z,26.13
2022-11-24T04:19:50.448Z,26.00
2022-11-24T04:22:17.206Z,26.90
2022-11-24T04:24:43.765Z,26.33
2022-11-24T04:27:10.515Z,25.93
2022-11-24T04:29:37.172Z,26.60
2022-11-24T04:32:03.788Z,26.60
2022-11-24T04:34:30.305Z,26.90
2022-11-24T04:36:56.906Z,26.37
2022-11-24T04:39:28.708Z,25.10
2022-11-24T04:41:55.562Z,26.20
2022-11-24T04:44:22.260Z,26.00
2022-11-24T04:46:48.908Z,25.60
2022-11-24T04:49:15.498Z,25.13
2022-11-24T04:51:42.309Z,25.20
2022-11-24T04:54:14.379Z,24.53
2022-11-24T04:56:42.125Z,25.97
2022-11-24T04:59:13.530Z,24.70
2022-11-24T05:01:40.569Z,25.73
2022-11-24T05:04:07.184Z,24.37
2022-11-24T05:06:33.715Z,24.57
2022-11-24T05:09:00.251Z,25.13
2022-11-24T05:11:26.782Z,25.40
2022-11-24T05:13:53.607Z,25.23
2022-11-24T05:16:20.243Z,24.77
2022-11-24T05:18:46.881Z,25.60
2022-11-24T05:21:13.482Z,25.70
2022-11-24T05:23:40.125Z,26.80
2022-11-24T05:26:06.921Z,23.83
2022-11-24T05:28:33.528Z,23.17
2022-11-24T05:31:04.113Z,23.23
2022-11-24T05:33:33.189Z,24.10
2022-11-24T05:36:04.469Z,23.83
2022-11-24T05:38:31.332Z,23.50
2022-11-24T05:41:02.135Z,22.40
2022-11-24T05:43:28.891Z,21.97
2022-11-24T05:45:58.208Z,21.70
2022-11-24T05:48:24.742Z,22.57
2022-11-24T05:50:58.461Z,22.30
2022-11-24T05:53:26.841Z,23.27
2022-11-24T05:55:53.614Z,22.93
2022-11-24T05:58:20.373Z,23.10
2022-11-24T06:00:47.008Z,22.63
2022-11-24T06:03:13.594Z,23.40
2022-11-24T06:05:40.213Z,23.70
2022-11-24T06:08:06.751Z,22.77
2022-11-24T06:10:33.354Z,23.40
2022-11-24T06:13:03.954Z,24.33
2022-11-24T06:15:30.541Z,22.93
2022-11-24T06:17:57.275Z,21.80
2022-11-24T06:20:28.500Z,22.23
2022-11-24T06:22:58.712Z,22.43
2022-11-24T06:25:25.349Z,21.50
2022-11-24T06:27:51.937Z,23.50
2022-11-24T06:30:18.525Z,23.80
2022-11-24T06:32:49.391Z,23.67
2022-11-24T06:35:16.861Z,23.70
2022-11-24T06:37:43.416Z,23.63
2022-11-24T06:40:10.321Z,23.20
2022-11-24T06:42:37.420Z,24.30
2022-11-24T06:45:08.772Z,22.80
2022-11-24T06:47:36.187Z,21.67
2022-11-24T06:50:03.315Z,21.13
2022-11-24T06:52:29.886Z,21.63
2022-11-24T06:54:57.147Z,22.57
2022-11-24T06:57:23.701Z,21.73
2022-11-24T06:59:50.373Z,22.57
2022-11-24T07:02:16.962Z,25.10
2022-11-24T07:04:43.569Z,23.50
2022-11-24T07:07:10.237Z,21.47
2022-11-24T07:09:36.788Z,22.03
2022-11-24T07:12:03.551Z,22.33
2022-11-24T07:14:30.112Z,23.43
2022-11-24T07:16:56.784Z,22.20
2022-11-24T07:19:25.011Z,22.27
2022-11-24T07:21:51.876Z,21.13
2022-11-24T07:24:18.666Z,21.30
2022-11-24T07:26:45.219Z,20.03
2022-11-24T07:29:11.757Z,21.33
2022-11-24T07:31:38.546Z,20.53
2022-11-24T07:34:05.239Z,19.47
2022-11-24T07:36:31.760Z,20.77
2022-11-24T07:38:58.469Z,20.70
2022-11-24T07:41:25.044Z,21.53
2022-11-24T07:43:52.132Z,23.10
2022-11-24T07:46:19.638Z,22.60
2022-11-24T07:48:46.952Z,22.20
2022-11-24T07:51:13.645Z,21.63
2022-11-24T07:53:40.267Z,22.43
2022-11-24T07:56:07.252Z,22.27
2022-11-24T07:58:36.011Z,24.33
2022-11-24T08:01:13.751Z,23.07
2022-11-24T08:03:40.807Z,21.97
2022-11-24T08:06:24.100Z,42.07
2022-11-24T08:08:52.958Z,51.00
2022-11-24T08:11:21.976Z,49.20
2022-11-24T08:13:48.563Z,36.37
2022-11-24T08:16:17.534Z,26.10
2022-11-24T08:18:48.599Z,21.93
2022-11-24T08:21:15.209Z,21.73
2022-11-24T08:23:42.206Z,21.37
2022-11-24T08:26:15.839Z,20.07
2022-11-24T08:28:42.925Z,20.87
2022-11-24T08:31:12.511Z,22.60
2022-11-24T08:33:39.770Z,20.33
2022-11-24T08:36:14.929Z,21.23
2022-11-24T08:38:41.543Z,21.53
2022-11-24T08:41:11.355Z,21.30
2022-11-24T08:43:38.069Z,20.30
2022-11-24T08:46:08.013Z,22.80
2022-11-24T08:48:35.297Z,21.30
2022-11-24T08:51:14.440Z,20.70
2022-11-24T08:53:41.840Z,20.80
2022-11-24T08:56:09.765Z,21.20
2022-11-24T08:58:37.835Z,22.07
2022-11-24T09:01:10.649Z,22.50
2022-11-24T09:03:38.306Z,20.43
2022-11-24T09:06:06.279Z,20.50
2022-11-24T09:08:33.422Z,20.47
2022-11-24T09:11:08.768Z,21.77
2022-11-24T09:13:36.136Z,21.87
2022-11-24T09:16:04.606Z,22.67
2022-11-24T09:18:31.167Z,22.03
2022-11-24T09:21:08.944Z,21.73
2022-11-24T09:23:36.315Z,21.70
2022-11-24T09:26:11.716Z,22.03
2022-11-24T09:28:38.311Z,22.73
2022-11-24T09:31:07.889Z,22.33
2022-11-24T09:33:35.813Z,21.10
2022-11-24T09:36:02.852Z,21.17
2022-11-24T09:38:29.443Z,21.60
2022-11-24T09:41:05.666Z,25.70
2022-11-24T09:44:03.732Z,22.13
2022-11-24T09:46:47.423Z,22.83
2022-11-24T09:49:23.991Z,22.00
2022-11-24T09:51:54.887Z,23.70
2022-11-24T09:54:28.083Z,23.03
2022-11-24T09:56:59.644Z,21.03
2022-11-24T09:59:27.418Z,21.93
2022-11-24T10:01:54.331Z,21.70
2022-11-24T10:04:43.996Z,20.67
2022-11-24T10:07:24.992Z,19.93
2022-11-24T10:10:24.609Z,23.07
2022-11-24T10:13:25.036Z,19.67
2022-11-24T10:16:29.617Z,21.80
2022-11-24T10:19:25.643Z,21.10
2022-11-24T10:22:18.371Z,20.97
2022-11-24T10:24:57.575Z,21.67
2022-11-24T10:27:34.485Z,22.87
2022-11-24T10:30:02.031Z,22.30
2022-11-24T10:32:37.597Z,22.73
2022-11-24T10:35:26.094Z,21.00
2022-11-24T10:38:02.045Z,20.93
2022-11-24T10:40:56.519Z,20.07
2022-11-24T10:43:28.034Z,21.67
2022-11-24T10:46:31.409Z,21.13
2022-11-24T10:49:03.757Z,21.90
2022-11-24T10:52:01.223Z,21.23
2022-11-24T10:54:28.144Z,19.93
2022-11-24T10:56:55.312Z,20.90
2022-11-24T10:59:24.626Z,20.10
2022-11-24T11:01:54.982Z,19.60
2022-11-24T11:04:29.650Z,20.63
2022-11-24T11:07:09.663Z,20.40
2022-11-24T11:09:36.557Z,20.60
2022-11-24T11:12:36.218Z,21.03
2022-11-24T11:15:22.076Z,20.70
2022-11-24T11:17:50.449Z,22.50
2022-11-24T11:20:20.283Z,19.50
2022-11-24T11:22:49.261Z,22.90
2022-11-24T11:25:32.273Z,20.20
2022-11-24T11:28:31.114Z,20.23
2022-11-24T11:31:16.533Z,19.63
2022-11-24T11:34:04.679Z,19.93
2022-11-24T11:36:33.420Z,21.23
2022-11-24T11:39:00.096Z,19.50
2022-11-24T11:41:49.728Z,20.03
2022-11-24T11:44:38.428Z,19.47
2022-11-24T11:47:25.438Z,19.40
2022-11-24T11:49:52.876Z,20.97
2022-11-24T11:52:25.210Z,20.77
2022-11-24T11:55:26.811Z,21.97
2022-11-24T11:58:20.276Z,19.50
2022-11-24T12:01:23.601Z,21.73
2022-11-24T12:04:07.759Z,21.60
2022-11-24T12:07:11.725Z,22.13
2022-11-24T12:09:57.200Z,21.83
2022-11-24T12:12:45.171Z,21.83
2022-11-24T12:15:34.564Z,22.57
2022-11-24T12:18:55.836Z,23.73
2022-11-24T12:21:23.052Z,22.07
2022-11-24T12:24:14.248Z,21.30
2022-11-24T12:26:57.675Z,21.10
2022-11-24T12:29:37.472Z,20.53
2022-11-24T12:32:31.814Z,23.10
2022-11-24T12:35:16.440Z,21.10
2022-11-24T12:37:54.971Z,21.83
2022-11-24T12:40:42.162Z,21.80
2022-11-24T12:43:30.810Z,22.20
2022-11-24T12:46:19.509Z,20.50
2022-11-24T12:49:14.800Z,20.57
2022-11-24T12:51:48.748Z,20.67
2022-11-24T12:54:20.325Z,20.93
2022-11-24T12:57:13.389Z,20.83
2022-11-24T12:59:47.897Z,20.83
2022-11-24T13:02:49.452Z,21.60
2022-11-24T13:05:25.361Z,20.83
2022-11-24T13:07:58.891Z,21.13
2022-11-24T13:10:46.953Z,21.60
2022-11-24T13:13:14.187Z,21.33
2022-11-24T13:16:13.110Z,20.60
2022-11-24T13:18:59.839Z,22.50
2022-11-24T13:21:47.181Z,20.70
2022-11-24T13:24:16.931Z,20.53
2022-11-24T13:26:49.921Z,21.20
2022-11-24T13:29:30.320Z,20.10
2022-11-24T13:32:02.697Z,19.63
2022-11-24T13:34:42.645Z,19.63
2022-11-24T13:37:41.122Z,20.27
2022-11-24T13:40:13.976Z,20.80
2022-11-24T13:43:01.340Z,21.00
2022-11-24T13:45:40.713Z,19.27
2022-11-24T13:48:20.071Z,20.13
2022-11-24T13:50:49.987Z,19.83
2022-11-24T13:53:40.610Z,20.07
2022-11-24T13:56:16.447Z,20.10
2022-11-24T13:58:52.179Z,20.20
2022-11-24T14:01:26.666Z,20.57
2022-11-24T14:04:33.974Z,19.87
2022-11-24T14:07:08.201Z,20.73
2022-11-24T14:09:46.939Z,20.07
2022-11-24T14:12:17.975Z,21.90
2022-11-24T14:14:47.296Z,20.43
2022-11-24T14:17:16.737Z,19.67
2022-11-24T14:19:49.008Z,20.63
2022-11-24T14:22:21.784Z,21.53
2022-11-24T14:24:57.326Z,20.93
2022-11-24T14:27:31.330Z,21.40
2022-11-24T14:30:05.245Z,20.70
2022-11-24T14:32:31.821Z,21.90
2022-11-24T14:34:58.612Z,21.30
2022-11-24T14:37:25.357Z,22.70
2022-11-24T14:39:52.068Z,21.97
2022-11-24T14:42:21.991Z,22.30
2022-11-24T14:44:58.575Z,22.13
2022-11-24T14:47:37.002Z,20.37
2022-11-24T14:50:16.387Z,25.83
2022-11-24T14:52:54.150Z,23.90
2022-11-24T14:55:32.502Z,21.43
2022-11-24T14:57:59.916Z,24.80
2022-11-24T15:00:32.550Z,23.33
2022-11-24T15:03:01.912Z,21.97
2022-11-24T15:05:59.450Z,21.37
2022-11-24T15:08:28.651Z,21.20
2022-11-24T15:11:03.049Z,22.47
2022-11-24T15:13:37.014Z,23.20
2022-11-24T15:16:15.861Z,24.43
2022-11-24T15:18:56.611Z,23.30
2022-11-24T15:21:34.548Z,23.23
2022-11-24T15:24:16.050Z,24.50
2022-11-24T15:26:43.629Z,22.67
2022-11-24T15:29:13.353Z,22.63
2022-11-24T15:31:41.323Z,22.23
2022-11-24T15:34:12.133Z,21.63
2022-11-24T15:36:38.698Z,22.10
2022-11-24T15:39:05.315Z,22.73
2022-11-24T15:41:33.582Z,22.17
2022-11-24T15:44:00.253Z,22.17
2022-11-24T15:46:37.609Z,21.57
2022-11-24T15:49:05.413Z,21.10
2022-11-24T15:51:32.115Z,22.03
2022-11-24T15:54:00.951Z,22.30
2022-11-24T15:56:33.632Z,21.67
2022-11-24T15:59:01.425Z,23.30
2022-11-24T16:01:31.499Z,21.93
2022-11-24T16:03:58.384Z,22.77
2022-11-24T16:06:25.575Z,22.23
2022-11-24T16:08:53.467Z,22.80
2022-11-24T16:11:20.487Z,22.97
2022-11-24T16:13:52.289Z,23.40
2022-11-24T16:16:20.616Z,23.53
2022-11-24T16:18:47.291Z,22.37
2022-11-24T16:21:13.928Z,21.97
2022-11-24T16:23:40.698Z,23.03
2022-11-24T16:26:07.589Z,22.00
2022-11-24T16:28:34.637Z,23.03
2022-11-24T16:31:01.390Z,22.23
2022-11-24T16:33:31.525Z,23.00
2022-11-24T16:35:58.673Z,24.00
2022-11-24T16:38:25.536Z,24.63
2022-11-24T16:40:53.433Z,23.93
2022-11-24T16:43:20.393Z,24.93
2022-11-24T16:46:21.175Z,24.87
2022-11-24T16:48:53.201Z,23.97
2022-11-24T16:51:22.916Z,25.73
2022-11-24T16:53:57.700Z,25.20
2022-11-24T16:56:24.501Z,25.47
2022-11-24T16:58:51.131Z,24.30
2022-11-24T17:01:17.893Z,24.80
2022-11-24T17:03:44.476Z,24.73
2022-11-24T17:06:15.651Z,23.47
2022-11-24T17:08:43.392Z,24.83
2022-11-24T17:11:15.525Z,25.63
2022-11-24T17:13:43.155Z,26.13
2022-11-24T17:16:12.666Z,25.50
2022-11-24T17:18:39.967Z,24.83
2022-11-24T17:21:10.194Z,25.37
2022-11-24T17:23:37.490Z,26.23
2022-11-24T17:26:05.805Z,24.93
2022-11-24T17:28:32.456Z,23.87
2022-11-24T17:30:59.079Z,22.93
2022-11-24T17:33:25.617Z,24.10
2022-11-24T17:35:52.206Z,23.63
2022-11-24T17:38:19.070Z,23.90
2022-11-24T17:40:48.768Z,24.33
2022-11-24T17:43:15.445Z,25.33
2022-11-24T17:45:42.353Z,23.93
2022-11-24T17:48:09.006Z,24.07
2022-11-24T17:50:35.759Z,25.43
2022-11-24T17:53:02.294Z,24.23
2022-11-24T17:55:28.882Z,25.73
2022-11-24T17:57:56.162Z,23.97
2022-11-24T18:00:22.980Z,23.83
2022-11-24T18:02:49.714Z,24.73
2022-11-24T18:05:16.426Z,24.63
2022-11-24T18:07:44.064Z,25.37
2022-11-24T18:10:11.296Z,24.60
2022-11-24T18:12:37.871Z,25.80
2022-11-24T18:15:04.902Z,24.83
2022-11-24T18:17:31.561Z,25.27
2022-11-24T18:19:58.165Z,24.40
2022-11-24T18:22:49.932Z,24.90
2022-11-24T18:25:11.504Z,24.87
2022-11-24T18:27:38.069Z,23.87
2022-11-24T18:30:05.780Z,24.27
2022-11-24T18:32:32.805Z,24.53
2022-11-24T18:34:59.399Z,24.93
2022-11-24T18:37:26.031Z,24.47
2022-11-24T18:39:52.604Z,24.00
2022-11-24T18:42:20.797Z,24.73
2022-11-24T18:44:51.123Z,24.43
2022-11-24T18:47:21.405Z,23.90
2022-11-24T18:49:48.005Z,24.37
2022-11-24T18:52:14.753Z,24.57
2022-11-24T18:54:41.374Z,24.47
2022-11-24T18:57:07.964Z,25.33
2022-11-24T18:59:34.540Z,24.37
2022-11-24T19:02:01.146Z,25.30
2022-11-24T19:04:27.847Z,24.30
2022-11-24T19:06:54.430Z,24.67
2022-11-24T19:09:22.704Z,25.90
2022-11-24T19:11:49.390Z,24.87
2022-11-24T19:14:17.725Z,25.40
2022-11-24T19:16:45.219Z,25.47
2022-11-24T19:19:12.477Z,24.90
2022-11-24T19:21:40.818Z,25.07
2022-11-24T19:24:13.202Z,25.33
2022-11-24T19:26:40.089Z,24.47
2022-11-24T19:29:10.730Z,26.87
2022-11-24T19:31:40.759Z,24.03
2022-11-24T19:34:08.183Z,24.87
2022-11-24T19:36:35.297Z,24.23
2022-11-24T19:39:04.611Z,24.67
2022-11-24T19:41:31.920Z,22.87
2022-11-24T19:43:59.545Z,24.20
2022-11-24T19:46:29.343Z,23.53
2022-11-24T19:48:58.253Z,23.40
2022-11-24T19:51:27.995Z,25.03
2022-11-24T19:53:54.586Z,23.87
2022-11-24T19:56:22.971Z,22.83
2022-11-24T19:58:50.590Z,22.70
2022-11-24T20:01:26.086Z,23.23
2022-11-24T20:04:07.332Z,22.83
2022-11-24T20:06:39.373Z,21.13
2022-11-24T20:09:08.441Z,20.90
2022-11-24T20:11:35.616Z,20.20
2022-11-24T20:14:02.429Z,19.53
2022-11-24T20:16:31.894Z,20.77
2022-11-24T20:19:00.916Z,21.90
2022-11-24T20:21:31.150Z,21.13
2022-11-24T20:24:02.990Z,22.37
2022-11-24T20:26:32.096Z,22.57
2022-11-24T20:28:59.946Z,22.63
2022-11-24T20:31:30.206Z,21.30
2022-11-24T20:33:57.486Z,23.67
2022-11-24T20:36:26.666Z,21.57
2022-11-24T20:38:53.985Z,22.17
2022-11-24T20:41:25.728Z,22.60
2022-11-24T20:43:54.141Z,23.60
2022-11-24T20:46:26.709Z,23.17
2022-11-24T20:48:54.376Z,24.20
2022-11-24T20:51:24.128Z,23.53
2022-11-24T20:53:52.233Z,23.87
2022-11-24T20:56:21.319Z,24.13
2022-11-24T20:58:48.376Z,24.33
2022-11-24T21:01:26.514Z,23.30
2022-11-24T21:03:58.670Z,23.20
2022-11-24T21:06:26.227Z,24.10
2022-11-24T21:08:52.917Z,23.87
2022-11-24T21:11:21.168Z,25.67
2022-11-24T21:13:49.193Z,23.90
2022-11-24T21:16:18.728Z,24.10
2022-11-24T21:18:47.123Z,24.93
2022-11-24T21:21:14.613Z,24.33
2022-11-24T21:23:41.198Z,24.33
2022-11-24T21:26:13.113Z,24.37
2022-11-24T21:28:42.212Z,24.53
2022-11-24T21:31:14.839Z,24.67
2022-11-24T21:33:42.483Z,24.47
2022-11-24T21:36:09.400Z,24.20
2022-11-24T21:38:36.180Z,25.20
2022-11-24T21:41:05.692Z,25.13
2022-11-24T21:43:33.213Z,25.47
2022-11-24T21:46:11.724Z,24.83
2022-11-24T21:48:39.241Z,25.23
2022-11-24T21:51:08.199Z,24.77
2022-11-24T21:53:36.354Z,23.23
2022-11-24T21:56:06.326Z,23.03
2022-11-24T21:58:33.449Z,24.47
2022-11-24T22:01:10.438Z,24.40
2022-11-24T22:03:37.244Z,24.83
2022-11-24T22:06:04.383Z,24.60
2022-11-24T22:08:31.394Z,25.17
2022-11-24T22:11:03.963Z,24.07
2022-11-24T22:13:30.942Z,23.70
2022-11-24T22:16:05.852Z,25.20
2022-11-24T22:18:37.821Z,25.33
2022-11-24T22:21:06.373Z,25.73
2022-11-24T22:23:34.591Z,25.13
2022-11-24T22:26:06.440Z,26.47
2022-11-24T22:28:35.153Z,25.57
2022-11-24T22:31:13.248Z,25.33
2022-11-24T22:33:40.251Z,24.50
2022-11-24T22:36:07.494Z,24.87
2022-11-24T22:38:34.798Z,24.20
2022-11-24T22:41:06.753Z,23.60
2022-11-24T22:43:35.150Z,24.87
2022-11-24T22:46:10.880Z,24.60
2022-11-24T22:48:38.488Z,25.00
2022-11-24T22:51:13.627Z,24.30
2022-11-24T22:53:40.923Z,24.87
2022-11-24T22:56:09.775Z,24.77
2022-11-24T22:58:37.312Z,24.30
2022-11-24T23:01:05.937Z,25.37
2022-11-24T23:03:34.350Z,23.87
2022-11-24T23:06:02.115Z,23.63
2022-11-24T23:08:29.687Z,24.77
2022-11-24T23:11:04.373Z,23.97
2022-11-24T23:13:31.274Z,23.73
2022-11-24T23:16:18.053Z,24.47
2022-11-24T23:18:51.040Z,24.10
2022-11-24T23:21:24.897Z,22.93
2022-11-24T23:23:52.209Z,21.90
2022-11-24T23:26:24.843Z,21.67
2022-11-24T23:28:51.553Z,22.03
2022-11-24T23:31:21.378Z,21.63
2022-11-24T23:33:48.154Z,23.27
2022-11-24T23:36:16.533Z,21.43
2022-11-24T23:38:43.576Z,22.00
2022-11-24T23:41:12.965Z,21.90
2022-11-24T23:43:41.116Z,22.60
2022-11-24T23:46:20.404Z,21.60
2022-11-24T23:48:47.947Z,22.43
2022-11-24T23:51:23.301Z,22.40
2022-11-24T23:53:51.392Z,21.77
2022-11-24T23:56:20.761Z,23.00
2022-11-24T23:58:47.502Z,21.83
